Örnsköldsvik, Sweden

04:57 PM CEST on Augusti 19, 2018 (GMT +0200)
Ornskoldsvik | | Change Station

Elev 338 ft 63.40 °N, 18.97 °E | Updated 7 minutes ago

Klart
Klart
63 °F
Feels Like 63 °F
N
21
Vind Växlande Vind from Västlig
Gusts 34 miles/tim

Idag
High -- | Low -- °F
--% Chance of Precip.
Yesterday
High -- | Low -- °F
Precip. -- tum
Lufttryck 29.71 tum
Sikt 6.2 miles
Molnigt Few 6200 ft
Daggpunkt 39 °F
Luftfuktighet 42%
Rainfall 0.00 tum
Snow Depth Not available.
4:51 AM 8:41 PM
Andra kvarteret, 63% visible
METAR ESNO 191450Z AUTO 27018G30KT 9999 FEW062/// 17/04 Q1006
Lufttryck 29.71 tum
Sikt 6.2 miles
Molnigt Few 6200 ft
Daggpunkt 39 °F
Luftfuktighet 42%
Rainfall 0.00 tum
Snow Depth Not available.
4:51 AM 8:41 PM
Andra kvarteret, 63% visible
METAR ESNO 191450Z AUTO 27018G30KT 9999 FEW062/// 17/04 Q1006

Get Severe Weather Alerts

Thanks for signing up!

Be on the lookout for a verification email in your inbox.

You'll start receiving the daily forecast at 6 AM.

×

10-Day Weather Forecast

×

Almanac

Astronomi

Aug. 19, 2018 Rise Set
Actual Time
Civil Twilight
Nautical Twilight
Astronomical Twilight
Månen
Length Of Visible Light
Dagens längd
Tomorrow will be .
, % of the Moon is Illuminated

Today's Extremes

Country Highs Country Lows

Community

WunderPhotos

Category 6

Welcome to Category 6. This is the collective home for Weather Underground's featured writeups by Dr. Jeff Masters (right), Bob Henson (left), Chris Burt, and other regular contributors.

Nearby

Air Quality

  Air Quality AQ Index Pollutant
Not available.

Snödjup

Station Depth Elevation

Earthquake Activity

Stad Distance Mag. Time & Date
Minimum magnitude displayed is 2.5.

Coastal Water Temperatures

Plats Temperatur

Stations

Nearby Weather Stations

Station Location Temp Vindavkylning Daggpunkt Luftfuktighet Vind Precip. Elev Uppdaterad Type